Kingston, Jamaica

11:39 PM EST on December 24, 2014 (GMT -0500)
Norman Manley International | Change Station
CLOSE
Current Station
Airport
Location: Kingston,
Elevation: 10 ft
Nearby Weather Stations

Elev 10 ft 17.94 °N, 76.79 °W | Updated 39 minutes ago

Mostly Cloudy
Mostly Cloudy
82 °F
Feels Like 88 °F
N
5
Wind Variable Wind from ENE

Today
High -- | Low -- °F
--% Chance of Precip.
Yesterday
High -- | Low -- °F
Precip. -- in
6:35 AM 5:38 PM
Waxing Crescent, 13% visible
Pressure 30.01 in
Visibility 6.2 miles
Clouds Few 2200 ft
Mostly Cloudy 3200 ft
Heat Index 88 °F
Dew Point 73 °F
Humidity 74%
Rainfall 0.00 in
Snow Depth Not available.
UV 0 out of 12
Pollen Not available.
Air Quality Not available.
Flu Activity Not available.
METAR MKJP 250400Z 06004KT 9999 FEW022 BKN032 28/23 Q1016

More Conditions Fewer Conditions

Pressure 30.01 in
Visibility 6.2 miles
Clouds Few 2200 ft
Mostly Cloudy 3200 ft
Heat Index 88 °F
Dew Point 73 °F
Humidity 74%
Rainfall 0.00 in
Snow Depth Not available.
UV 0 out of 12
Pollen Not available.
Air Quality Not available.
Flu Activity Not available.
METAR MKJP 250400Z 06004KT 9999 FEW022 BKN032 28/23 Q1016

More Conditions Fewer Conditions

10-Day Weather Forecast

Almanac

Astronomy

Dec. 24, 2014 Rise Set
Actual Time
Civil Twilight
Nautical Twilight
Astronomical Twilight
Moon
Length of Visible Light
Length of Day
Tomorrow will be .
, % of the Moon is Illuminated

Today's Extremes

Country Highs Country Lows

Community

WunderPhotos

Upload Photos

1,780,236 photos uploaded!

WunderBlogs® & News

Nearby

Air Quality

  Air Quality AQ Index Pollutant
Not available.

Snow Depth

Station Depth Elevation

Earthquake Activity

City Distance Mag. Time & Date
Minimum magnitude displayed is 2.5.

Coastal Water Temperatures

Place Temperature

Nearby Weather Stations